createdAt,value
2023-02-22T00:03:16.169Z,17.85
2023-02-22T00:08:19.721Z,20.10
2023-02-22T00:13:25.322Z,14.82
2023-02-22T00:18:30.452Z,18.65
2023-02-22T00:23:35.137Z,14.48
2023-02-22T00:28:42.475Z,13.80
2023-02-22T00:33:46.253Z,17.45
2023-02-22T00:38:49.678Z,10.48
2023-02-22T00:43:55.153Z,15.18
2023-02-22T00:48:58.550Z,20.67
2023-02-22T00:54:02.289Z,17.50
2023-02-22T00:59:07.046Z,21.33
2023-02-22T01:04:10.883Z,25.20
2023-02-22T01:09:14.476Z,31.70
2023-02-22T01:14:21.113Z,29.38
2023-02-22T01:19:24.941Z,30.60
2023-02-22T01:24:28.443Z,26.67
2023-02-22T01:29:34.351Z,24.48
2023-02-22T01:34:37.784Z,20.27
2023-02-22T01:39:41.443Z,16.63
2023-02-22T01:44:46.241Z,14.95
2023-02-22T01:49:51.794Z,16.92
2023-02-22T01:55:00.159Z,15.93
2023-02-22T02:00:11.027Z,16.23
2023-02-22T02:05:15.001Z,19.83
2023-02-22T02:10:19.038Z,17.60
2023-02-22T02:15:28.960Z,13.50
2023-02-22T02:20:41.695Z,14.73
2023-02-22T02:26:25.145Z,13.93
2023-02-22T02:31:58.396Z,16.33
2023-02-22T02:37:11.108Z,19.53
2023-02-22T02:42:19.436Z,16.85
2023-02-22T02:47:28.965Z,20.20
2023-02-22T02:52:35.787Z,12.25
2023-02-22T02:57:39.984Z,19.25
2023-02-22T03:02:58.944Z,20.27
2023-02-22T03:08:10.922Z,25.75
2023-02-22T03:13:20.392Z,17.73
2023-02-22T03:18:30.840Z,19.42
2023-02-22T03:23:40.743Z,15.80
2023-02-22T03:28:47.921Z,16.40
2023-02-22T03:33:57.553Z,21.30
2023-02-22T03:39:04.339Z,22.02
2023-02-22T03:44:10.470Z,18.15
2023-02-22T03:49:21.169Z,17.10
2023-02-22T03:54:24.748Z,20.27
2023-02-22T03:59:29.448Z,20.20
2023-02-22T04:04:34.413Z,17.65
2023-02-22T04:09:38.320Z,21.88
2023-02-22T04:14:42.218Z,14.95
2023-02-22T04:19:47.109Z,14.57
2023-02-22T04:24:50.586Z,15.68
2023-02-22T04:29:54.184Z,15.43
2023-02-22T04:34:59.251Z,14.48
2023-02-22T04:40:02.760Z,10.07
2023-02-22T04:45:08.456Z,14.82
2023-02-22T04:50:14.592Z,17.23
2023-02-22T04:55:18.373Z,13.10
2023-02-22T05:00:22.641Z,14.55
2023-02-22T05:05:27.478Z,16.80
2023-02-22T05:10:30.918Z,16.13
2023-02-22T05:15:34.385Z,20.80
2023-02-22T05:20:39.357Z,13.38
2023-02-22T05:25:43.406Z,21.42
2023-02-22T05:30:46.964Z,11.50
2023-02-22T05:35:51.808Z,19.30
2023-02-22T05:40:55.336Z,17.90
2023-02-22T05:45:58.796Z,14.07
2023-02-22T05:51:04.509Z,19.83
2023-02-22T05:56:08.240Z,26.60
2023-02-22T06:01:11.626Z,22.50
2023-02-22T06:06:17.132Z,22.23
2023-02-22T06:11:20.920Z,19.40
2023-02-22T06:16:24.760Z,20.58
2023-02-22T06:21:29.880Z,15.93
2023-02-22T06:26:33.362Z,16.63
2023-02-22T06:31:37.531Z,16.90
2023-02-22T06:36:43.050Z,18.02
2023-02-22T06:41:47.916Z,21.17
2023-02-22T06:46:52.384Z,14.57
2023-02-22T06:51:57.416Z,22.52
2023-02-22T06:57:01.301Z,18.33
2023-02-22T07:02:04.928Z,19.60
2023-02-22T07:07:09.657Z,26.55
2023-02-22T07:12:13.103Z,29.50
2023-02-22T07:17:16.759Z,19.23
2023-02-22T07:22:21.574Z,19.23
2023-02-22T07:27:25.330Z,20.98
2023-02-22T07:32:29.119Z,20.13
2023-02-22T07:37:34.103Z,22.80
2023-02-22T07:42:55.502Z,27.35
2023-02-22T07:47:59.532Z,22.02
2023-02-22T07:53:07.202Z,27.75
2023-02-22T07:58:13.487Z,24.52
2023-02-22T08:03:18.709Z,20.38
2023-02-22T08:08:24.381Z,23.20
2023-02-22T08:13:27.923Z,27.35
2023-02-22T08:18:31.407Z,23.77
2023-02-22T08:23:36.158Z,30.38
2023-02-22T08:28:39.967Z,18.83
2023-02-22T08:33:43.549Z,17.55
2023-02-22T08:38:48.533Z,21.40
2023-02-22T08:43:52.554Z,19.95
2023-02-22T08:48:56.506Z,25.75
2023-02-22T08:54:01.590Z,21.50
2023-02-22T08:59:05.013Z,28.50
2023-02-22T09:04:08.726Z,21.02
2023-02-22T09:09:13.966Z,21.70
2023-02-22T09:14:18.087Z,22.77
2023-02-22T09:19:21.843Z,16.95
2023-02-22T09:24:27.259Z,25.50
2023-02-22T09:29:31.605Z,19.80
2023-02-22T09:34:35.403Z,17.92
2023-02-22T09:39:40.517Z,20.25
2023-02-22T09:44:49.196Z,20.77
2023-02-22T09:50:02.436Z,18.50
2023-02-22T10:00:23.744Z,16.52
2023-02-22T10:05:33.836Z,18.48
2023-02-22T10:10:40.780Z,24.50
2023-02-22T10:15:51.540Z,20.23
2023-02-22T10:20:58.062Z,18.10
2023-02-22T10:26:16.425Z,21.85
2023-02-22T10:31:26.035Z,19.23
2023-02-22T10:36:29.916Z,19.98
2023-02-22T10:41:38.912Z,20.95
2023-02-22T10:46:44.518Z,16.98
2023-02-22T10:51:49.640Z,20.67
2023-02-22T10:56:56.467Z,19.05
2023-02-22T11:02:00.189Z,17.42
2023-02-22T11:07:19.033Z,20.92
2023-02-22T11:12:29.997Z,16.15
2023-02-22T11:17:35.693Z,14.63
2023-02-22T11:22:42.230Z,16.58
2023-02-22T11:27:47.912Z,14.73
2023-02-22T11:32:55.943Z,20.20
2023-02-22T11:38:12.762Z,12.27
2023-02-22T11:43:20.042Z,14.07
2023-02-22T11:48:23.567Z,17.05
2023-02-22T11:53:38.280Z,16.83
2023-02-22T11:58:49.633Z,21.48
2023-02-22T12:04:24.497Z,17.52
2023-02-22T12:09:36.765Z,14.07
2023-02-22T12:14:54.949Z,17.97
2023-02-22T12:20:07.743Z,12.15
2023-02-22T12:25:22.775Z,18.67
2023-02-22T12:30:30.452Z,15.13
2023-02-22T12:35:36.646Z,14.30
2023-02-22T12:40:47.090Z,14.27
2023-02-22T12:45:59.283Z,16.08
2023-02-22T12:51:12.861Z,16.17
2023-02-22T12:56:22.331Z,10.15
2023-02-22T13:01:34.074Z,13.02
2023-02-22T13:06:46.547Z,22.17
2023-02-22T13:11:59.499Z,11.65
2023-02-22T13:17:10.788Z,20.63
2023-02-22T13:22:20.961Z,13.63
2023-02-22T13:27:28.998Z,12.30
2023-02-22T13:32:51.470Z,14.32
2023-02-22T13:38:20.000Z,15.15
2023-02-22T13:43:50.264Z,17.30
2023-02-22T13:49:19.650Z,13.68
2023-02-22T13:54:29.797Z,12.23
2023-02-22T13:59:36.355Z,12.77
2023-02-22T14:04:44.680Z,18.92
2023-02-22T14:09:49.935Z,12.93
2023-02-22T14:15:28.779Z,11.57
2023-02-22T14:20:36.939Z,12.43
2023-02-22T14:25:43.158Z,19.10
2023-02-22T14:30:46.647Z,13.18
2023-02-22T14:35:52.581Z,11.93
2023-02-22T14:40:59.656Z,15.60
2023-02-22T14:46:05.448Z,14.40
2023-02-22T14:51:21.795Z,13.18
2023-02-22T14:56:30.569Z,10.15
2023-02-22T15:07:08.894Z,11.00
2023-02-22T15:12:18.708Z,9.68
2023-02-22T15:17:26.001Z,11.48
2023-02-22T15:22:37.621Z,11.80
2023-02-22T15:27:47.578Z,13.68
2023-02-22T15:33:04.237Z,8.80
2023-02-22T15:38:35.842Z,13.07
2023-02-22T15:43:43.041Z,10.70
2023-02-22T15:49:26.097Z,12.30
2023-02-22T15:54:50.948Z,14.30
2023-02-22T16:00:00.597Z,13.32
2023-02-22T16:05:09.063Z,14.75
2023-02-22T16:10:40.086Z,13.95
2023-02-22T16:15:57.427Z,15.18
2023-02-22T16:21:13.267Z,14.65
2023-02-22T16:26:28.557Z,20.88
2023-02-22T16:37:22.225Z,18.52
2023-02-22T16:42:30.831Z,20.35
2023-02-22T16:47:34.780Z,17.25
2023-02-22T16:52:41.129Z,20.10
2023-02-22T16:57:46.987Z,15.38
2023-02-22T17:02:50.690Z,13.52
2023-02-22T17:07:54.501Z,14.00
2023-02-22T17:13:07.244Z,15.25
2023-02-22T17:18:22.864Z,20.02
2023-02-22T17:23:28.642Z,19.90
2023-02-22T17:28:36.621Z,20.00
2023-02-22T17:33:40.654Z,16.48
2023-02-22T17:38:44.098Z,23.35
2023-02-22T17:43:49.232Z,17.80
2023-02-22T17:48:54.980Z,15.18
2023-02-22T17:53:58.595Z,19.05
2023-02-22T17:59:03.341Z,21.48
2023-02-22T18:04:07.228Z,18.00
2023-02-22T18:09:11.368Z,18.35
2023-02-22T18:14:16.137Z,13.57
2023-02-22T18:19:22.088Z,15.98
2023-02-22T18:24:26.603Z,18.60
2023-02-22T18:29:31.408Z,16.98
2023-02-22T18:34:34.826Z,21.90
2023-02-22T18:39:42.829Z,22.83
2023-02-22T18:44:47.602Z,24.40
2023-02-22T18:49:51.380Z,29.45
2023-02-22T18:54:54.835Z,24.52
2023-02-22T18:59:59.667Z,26.98
2023-02-22T19:05:03.923Z,24.55
2023-02-22T19:10:08.708Z,26.50
2023-02-22T19:15:13.728Z,25.80
2023-02-22T19:20:17.458Z,25.65
2023-02-22T19:25:21.589Z,25.55
2023-02-22T19:30:27.790Z,23.00
2023-02-22T19:35:31.852Z,33.13
2023-02-22T19:40:35.441Z,26.92
2023-02-22T19:45:41.836Z,29.25
2023-02-22T19:50:49.814Z,26.38
2023-02-22T19:55:53.395Z,28.92
2023-02-22T20:00:59.070Z,24.75
2023-02-22T20:06:02.574Z,25.75
2023-02-22T20:11:07.093Z,20.27
2023-02-22T20:16:15.614Z,21.15
2023-02-22T20:21:22.846Z,25.77
2023-02-22T20:26:28.192Z,26.55
2023-02-22T20:31:34.136Z,23.83
2023-02-22T20:36:40.142Z,20.48
2023-02-22T20:41:46.217Z,21.27
2023-02-22T20:46:50.982Z,25.20
2023-02-22T20:51:54.752Z,23.30
2023-02-22T20:56:58.204Z,20.40
2023-02-22T21:02:03.487Z,25.60
2023-02-22T21:07:06.927Z,25.25
2023-02-22T21:12:13.534Z,30.67
2023-02-22T21:17:25.722Z,28.23
2023-02-22T21:22:30.199Z,22.75
2023-02-22T21:27:33.833Z,33.60
2023-02-22T21:32:38.646Z,27.35
2023-02-22T21:37:43.742Z,25.52
2023-02-22T21:42:49.005Z,27.25
2023-02-22T21:47:54.697Z,29.05
2023-02-22T21:52:59.161Z,29.65
2023-02-22T21:58:02.797Z,32.72
2023-02-22T22:03:12.722Z,30.92
2023-02-22T22:08:19.647Z,31.40
2023-02-22T22:13:23.256Z,27.70
2023-02-22T22:18:27.992Z,26.90
2023-02-22T22:23:31.482Z,29.73
2023-02-22T22:28:34.836Z,37.95
2023-02-22T22:33:42.201Z,32.63
2023-02-22T22:38:47.411Z,30.48
2023-02-22T22:43:52.546Z,29.02
2023-02-22T22:48:58.294Z,29.48
2023-02-22T22:54:01.771Z,29.83
2023-02-22T22:59:08.369Z,37.33
2023-02-22T23:04:17.207Z,34.55
2023-02-22T23:09:23.618Z,29.33
2023-02-22T23:14:31.190Z,30.92
2023-02-22T23:19:37.597Z,35.60
2023-02-22T23:24:42.411Z,31.58
2023-02-22T23:29:47.001Z,33.92
2023-02-22T23:34:51.928Z,32.30
2023-02-22T23:39:55.423Z,28.30
2023-02-22T23:45:00.879Z,40.78
2023-02-22T23:50:13.581Z,38.63
2023-02-22T23:55:20.600Z,32.53
